Time;durP1;ratioP1;P1;durP2;ratioP2;P2;SDS_P1;SDS_P2;PMS_P1;PMS_P2;Temp;Humidity;BMP_temperature;BMP_pressure;BME280_temperature;BME280_humidity;BME280_pressure;Samples;Min_cycle;Max_cycle;Signal;HPM_P1;HPM_P2
2021/11/27 00:02:12;;;;;;;8.82;8.00;;;5.60;99.90;;;;;;5016280;28;20718;-78
2021/11/27 00:04:39;;;;;;;9.10;8.20;;;5.60;99.90;;;;;;5013304;28;20215;-80
2021/11/27 00:07:06;;;;;;;8.82;8.00;;;5.50;99.90;;;;;;5014805;28;20231;-82
2021/11/27 00:09:33;;;;;;;8.27;7.53;;;5.50;99.90;;;;;;5015229;28;20223;-78
2021/11/27 00:12:01;;;;;;;8.63;7.93;;;5.50;99.90;;;;;;5019013;28;20223;-82
2021/11/27 00:14:30;;;;;;;9.75;8.75;;;5.50;99.90;;;;;;5015538;28;20231;-79
2021/11/27 00:16:57;;;;;;;9.10;8.20;;;5.50;99.90;;;;;;5017130;28;20664;-77
2021/11/27 00:19:24;;;;;;;9.38;8.48;;;5.50;99.90;;;;;;5015595;28;20705;-82
2021/11/27 00:21:51;;;;;;;8.63;7.82;;;5.50;99.90;;;;;;5016177;28;20232;-81
2021/11/27 00:24:19;;;;;;;8.93;8.02;;;5.50;99.90;;;;;;5014604;28;20395;-79
2021/11/27 00:26:46;;;;;;;8.80;7.95;;;5.50;99.90;;;;;;5017823;28;20227;-79
2021/11/27 00:29:15;;;;;;;9.25;8.43;;;5.60;99.90;;;;;;5016493;28;20235;-78
2021/11/27 00:31:42;;;;;;;9.00;8.10;;;5.60;99.90;;;;;;5016436;28;20223;-80
2021/11/27 00:34:10;;;;;;;7.90;7.20;;;5.60;99.90;;;;;;5019734;28;20489;-81
2021/11/27 00:36:37;;;;;;;8.60;7.82;;;5.60;99.90;;;;;;5017730;28;20234;-76
2021/11/27 00:39:05;;;;;;;9.10;8.20;;;5.60;99.90;;;;;;5022038;28;20223;-77
2021/11/27 00:41:33;;;;;;;9.55;8.73;;;5.60;99.90;;;;;;5017999;28;20247;-81
2021/11/27 00:44:00;;;;;;;8.93;8.13;;;5.60;99.90;;;;;;5020422;28;20245;-77
2021/11/27 00:46:28;;;;;;;9.82;8.93;;;5.50;99.90;;;;;;5016880;28;20226;-77
2021/11/27 00:48:56;;;;;;;8.95;8.15;;;5.50;99.90;;;;;;5019736;28;20223;-77
2021/11/27 00:51:25;;;;;;;9.40;8.55;;;5.40;99.90;;;;;;5013799;28;20733;-79
2021/11/27 00:53:53;;;;;;;9.57;8.57;;;5.30;99.90;;;;;;5016387;28;20228;-78
2021/11/27 00:56:21;;;;;;;9.45;8.55;;;5.30;99.90;;;;;;5019970;28;20231;-79
2021/11/27 00:58:49;;;;;;;8.57;7.88;;;5.30;99.90;;;;;;5016810;28;20230;-78
2021/11/27 01:01:19;;;;;;;8.48;7.68;;;5.30;99.90;;;;;;5014873;28;20233;-80
2021/11/27 01:03:48;;;;;;;9.60;8.57;;;5.40;99.90;;;;;;5021432;28;20223;-78
2021/11/27 01:06:19;;;;;;;9.48;8.68;;;5.40;99.90;;;;;;5017563;28;20216;-78
2021/11/27 01:08:48;;;;;;;9.88;8.88;;;5.40;99.90;;;;;;5018534;28;20223;-81
2021/11/27 01:11:18;;;;;;;8.90;8.20;;;5.40;99.90;;;;;;5021208;28;20230;-79
2021/11/27 01:13:48;;;;;;;9.38;8.57;;;5.40;99.90;;;;;;5017041;28;20220;-80
2021/11/27 01:16:17;;;;;;;10.43;9.43;;;5.40;99.90;;;;;;5017461;28;20590;-77
2021/11/27 01:18:45;;;;;;;10.85;9.73;;;5.40;99.90;;;;;;5016908;28;20219;-78
2021/11/27 01:21:16;;;;;;;9.45;8.55;;;5.40;99.90;;;;;;5020197;28;20219;-78
2021/11/27 01:23:45;;;;;;;9.85;8.95;;;5.30;99.90;;;;;;5020214;28;20223;-77
2021/11/27 01:26:12;;;;;;;9.82;8.93;;;5.30;99.90;;;;;;5018632;28;20223;-79
2021/11/27 01:28:41;;;;;;;9.75;8.95;;;5.30;99.90;;;;;;5018170;28;20238;-78
2021/11/27 01:31:09;;;;;;;9.45;8.55;;;5.40;99.90;;;;;;5016015;28;20237;-78
2021/11/27 01:33:37;;;;;;;9.35;8.52;;;5.40;99.90;;;;;;4993905;28;20231;-78
2021/11/27 01:36:05;;;;;;;10.05;9.15;;;5.40;99.90;;;;;;5033870;28;20716;-75
2021/11/27 01:38:36;;;;;;;10.00;9.13;;;5.40;99.90;;;;;;5018048;28;20227;-81
2021/11/27 01:41:03;;;;;;;9.30;8.32;;;5.50;99.90;;;;;;5014498;28;20245;-79
2021/11/27 01:43:33;;;;;;;10.13;9.13;;;5.50;99.90;;;;;;5016537;28;20227;-81
2021/11/27 01:46:00;;;;;;;9.13;8.43;;;5.50;99.90;;;;;;5013776;28;20215;-77
2021/11/27 01:48:28;;;;;;;8.73;7.97;;;5.50;99.90;;;;;;5017961;28;20224;-80
2021/11/27 01:50:58;;;;;;;10.88;9.88;;;5.50;99.90;;;;;;5018393;28;20215;-81
2021/11/27 01:53:27;;;;;;;10.85;9.75;;;5.50;99.90;;;;;;5023075;28;20219;-78
2021/11/27 01:56:00;;;;;;;10.52;9.63;;;5.40;99.90;;;;;;5014643;28;20269;-83
2021/11/27 01:58:28;;;;;;;9.82;9.02;;;5.30;99.90;;;;;;4993185;28;20592;-80
2021/11/27 02:00:59;;;;;;;11.25;9.07;;;5.40;99.90;;;;;;5028465;28;20227;-78
2021/11/27 02:03:26;;;;;;;9.90;9.00;;;5.40;99.90;;;;;;5015812;28;20728;-77
2021/11/27 02:05:54;;;;;;;12.02;9.88;;;5.40;99.90;;;;;;5013047;28;20216;-78
2021/11/27 02:08:21;;;;;;;10.45;9.45;;;5.40;99.90;;;;;;5019923;28;20230;-78
2021/11/27 02:10:49;;;;;;;10.30;9.05;;;5.40;99.90;;;;;;5017082;28;20258;-78
2021/11/27 02:13:17;;;;;;;10.40;9.50;;;5.30;99.90;;;;;;5020514;28;20231;-84
2021/11/27 02:15:45;;;;;;;10.48;9.57;;;5.30;99.90;;;;;;5019115;28;20219;-80
2021/11/27 02:18:12;;;;;;;9.32;8.52;;;5.30;99.90;;;;;;5018703;28;20478;-79
2021/11/27 02:20:43;;;;;;;9.35;8.45;;;5.30;99.90;;;;;;5020014;28;20736;-78
2021/11/27 02:23:10;;;;;;;9.73;8.82;;;5.40;99.90;;;;;;5022568;28;20714;-84
2021/11/27 02:25:37;;;;;;;9.48;8.57;;;5.30;99.90;;;;;;5017590;28;20226;-78
2021/11/27 02:28:07;;;;;;;9.38;8.55;;;5.30;99.90;;;;;;5020248;28;20235;-79
2021/11/27 02:30:34;;;;;;;11.30;8.48;;;5.30;99.90;;;;;;5017965;28;20329;-80
2021/11/27 02:33:01;;;;;;;9.73;8.82;;;5.30;99.90;;;;;;5020386;28;20220;-78
2021/11/27 02:35:28;;;;;;;8.73;8.02;;;5.30;99.90;;;;;;5028309;28;20224;-78
2021/11/27 02:37:57;;;;;;;9.27;8.45;;;5.20;99.90;;;;;;5021194;28;20227;-78
2021/11/27 02:40:25;;;;;;;9.07;8.27;;;5.20;99.90;;;;;;5026448;28;20228;-80
2021/11/27 02:42:53;;;;;;;9.05;8.25;;;5.20;99.90;;;;;;5028506;28;20234;-79
2021/11/27 02:45:20;;;;;;;8.82;8.02;;;5.20;99.90;;;;;;5027269;28;20223;-78
2021/11/27 02:47:47;;;;;;;7.60;6.90;;;5.20;99.90;;;;;;5029336;28;20231;-81
2021/11/27 02:50:14;;;;;;;8.88;8.00;;;5.30;99.90;;;;;;5027102;28;20592;-79
2021/11/27 02:52:42;;;;;;;8.48;7.78;;;5.30;99.90;;;;;;5025882;28;20231;-79
2021/11/27 02:55:11;;;;;;;9.00;8.20;;;5.30;99.90;;;;;;5022465;28;20227;-78
2021/11/27 02:57:38;;;;;;;9.40;8.60;;;5.40;99.90;;;;;;5015187;28;20219;-79
2021/11/27 03:00:10;;;;;;;8.63;7.63;;;5.40;99.90;;;;;;5028679;28;20258;-79
2021/11/27 03:02:37;;;;;;;20.85;8.82;;;5.40;99.90;;;;;;5022860;28;20238;-83
2021/11/27 03:05:05;;;;;;;11.05;8.85;;;5.40;99.90;;;;;;5027508;28;20239;-80
2021/11/27 03:07:32;;;;;;;9.73;8.77;;;5.30;99.90;;;;;;5027994;28;20211;-82
2021/11/27 03:09:59;;;;;;;9.07;8.38;;;5.30;99.90;;;;;;5023863;28;20820;-78
2021/11/27 03:12:28;;;;;;;8.60;7.90;;;5.30;99.90;;;;;;5024209;28;20235;-80
2021/11/27 03:14:55;;;;;;;8.35;7.70;;;5.30;99.90;;;;;;5024447;28;20223;-81
2021/11/27 03:17:22;;;;;;;8.27;7.57;;;5.30;99.90;;;;;;5026914;28;20234;-78
2021/11/27 03:19:49;;;;;;;7.95;7.22;;;5.30;99.90;;;;;;5022422;28;20223;-82
2021/11/27 03:22:19;;;;;;;7.75;7.05;;;5.30;99.90;;;;;;5022114;28;20238;-79
2021/11/27 03:24:47;;;;;;;7.13;6.55;;;5.30;99.90;;;;;;5017863;28;20234;-78
2021/11/27 03:27:15;;;;;;;7.60;6.72;;;5.30;99.90;;;;;;5020986;28;20231;-78
2021/11/27 03:29:44;;;;;;;7.38;6.78;;;5.30;99.90;;;;;;5022198;28;20253;-78
2021/11/27 03:32:13;;;;;;;7.43;6.82;;;5.30;99.90;;;;;;5017019;28;20234;-79
2021/11/27 03:34:41;;;;;;;7.07;6.47;;;5.20;99.90;;;;;;5026560;28;20231;-78
2021/11/27 03:37:09;;;;;;;7.45;6.93;;;5.20;99.90;;;;;;5019373;28;20223;-78
2021/11/27 03:39:37;;;;;;;6.07;5.57;;;5.30;99.90;;;;;;5018998;28;20227;-78
2021/11/27 03:42:06;;;;;;;6.53;6.03;;;5.30;99.90;;;;;;5024994;28;20227;-77
2021/11/27 03:44:34;;;;;;;6.53;6.03;;;5.30;99.90;;;;;;5019430;28;20239;-77
2021/11/27 03:47:03;;;;;;;7.53;6.93;;;5.30;99.90;;;;;;5018529;28;20727;-78
2021/11/27 03:49:31;;;;;;;7.30;6.70;;;5.30;99.90;;;;;;4993375;28;20219;-77
2021/11/27 03:52:00;;;;;;;7.88;7.18;;;5.30;99.90;;;;;;5008703;23;20228;-73
2021/11/27 03:54:28;;;;;;;7.65;6.95;;;5.30;99.90;;;;;;4999288;28;20220;-73
2021/11/27 03:56:55;;;;;;;7.32;6.63;;;5.30;99.90;;;;;;5016976;28;20223;-73
2021/11/27 03:59:23;;;;;;;7.30;6.70;;;5.30;99.90;;;;;;5020723;28;20232;-71
2021/11/27 04:01:51;;;;;;;7.10;6.50;;;5.30;99.90;;;;;;5024601;28;20229;-74
2021/11/27 04:04:20;;;;;;;7.07;6.50;;;5.30;99.90;;;;;;5039956;28;20233;-73
2021/11/27 04:06:48;;;;;;;6.90;6.32;;;5.30;99.90;;;;;;5031705;28;20234;-74
2021/11/27 04:09:15;;;;;;;9.43;7.10;;;5.30;99.90;;;;;;5037853;28;20713;-73
2021/11/27 04:11:43;;;;;;;11.00;7.28;;;5.30;99.90;;;;;;5035231;28;20230;-73
2021/11/27 04:14:10;;;;;;;31.95;8.43;;;5.20;99.90;;;;;;5034325;28;20227;-74
2021/11/27 04:16:37;;;;;;;14.15;6.90;;;5.20;99.90;;;;;;5034881;28;20229;-74
2021/11/27 04:19:05;;;;;;;57.50;10.77;;;5.10;99.90;;;;;;5036554;28;20227;-73
2021/11/27 04:21:33;;;;;;;7.43;6.75;;;5.00;99.90;;;;;;5045915;28;20223;-74
2021/11/27 04:24:00;;;;;;;7.68;5.63;;;4.90;99.90;;;;;;5036304;28;20223;-74
2021/11/27 04:26:27;;;;;;;9.13;5.47;;;4.90;99.90;;;;;;5035919;28;20223;-74
2021/11/27 04:28:55;;;;;;;5.00;4.70;;;4.90;99.90;;;;;;5035526;28;20230;-72
2021/11/27 04:31:23;;;;;;;7.97;4.70;;;4.90;99.90;;;;;;5041103;28;20223;-74
2021/11/27 04:33:52;;;;;;;11.07;4.70;;;4.90;99.90;;;;;;5035865;28;20229;-74
2021/11/27 04:36:19;;;;;;;4.30;3.97;;;4.90;99.90;;;;;;5031722;28;20230;-73
2021/11/27 04:38:48;;;;;;;3.95;3.65;;;4.90;99.90;;;;;;5035545;28;20599;-74
2021/11/27 04:41:16;;;;;;;4.03;3.83;;;4.80;99.90;;;;;;5035952;28;20251;-74
2021/11/27 04:43:43;;;;;;;3.53;3.28;;;4.90;99.90;;;;;;5033869;28;20230;-73
2021/11/27 04:46:10;;;;;;;3.85;3.65;;;5.00;99.90;;;;;;5033685;28;20221;-74
2021/11/27 04:48:37;;;;;;;3.67;3.38;;;5.00;99.90;;;;;;5033283;28;20223;-74
2021/11/27 04:51:05;;;;;;;3.58;3.38;;;5.00;99.90;;;;;;5034303;28;20604;-75
2021/11/27 04:53:33;;;;;;;3.75;3.45;;;5.00;99.90;;;;;;5036389;28;20227;-73
2021/11/27 04:56:01;;;;;;;3.13;2.92;;;5.00;99.90;;;;;;5031698;28;20222;-74
2021/11/27 04:58:30;;;;;;;2.88;2.78;;;5.10;99.90;;;;;;5035686;28;20604;-74
2021/11/27 05:00:58;;;;;;;3.13;2.92;;;5.10;99.90;;;;;;5035016;28;20723;-74
2021/11/27 05:03:25;;;;;;;3.55;3.35;;;5.10;99.90;;;;;;5035847;28;20226;-73
2021/11/27 05:05:52;;;;;;;3.70;3.50;;;5.10;99.90;;;;;;5035865;28;20647;-73
2021/11/27 05:08:19;;;;;;;3.63;3.42;;;5.20;99.90;;;;;;5034700;28;20215;-73
2021/11/27 05:10:46;;;;;;;3.20;3.00;;;5.20;99.90;;;;;;5031636;28;20252;-74
2021/11/27 05:13:15;;;;;;;3.88;3.65;;;5.20;99.90;;;;;;5035991;28;20219;-74
2021/11/27 05:15:42;;;;;;;3.90;3.70;;;5.10;99.90;;;;;;5046944;28;20226;-73
2021/11/27 05:18:10;;;;;;;3.78;3.58;;;5.10;99.90;;;;;;5036630;28;20219;-73
2021/11/27 05:20:38;;;;;;;3.60;3.40;;;5.10;99.90;;;;;;5033976;28;20223;-74
2021/11/27 05:23:06;;;;;;;3.50;3.30;;;5.10;99.90;;;;;;5035466;28;20231;-74
2021/11/27 05:25:33;;;;;;;3.65;3.45;;;5.10;99.90;;;;;;5037002;28;20316;-74
2021/11/27 05:28:00;;;;;;;4.28;3.92;;;5.10;99.90;;;;;;5038124;28;20215;-74
2021/11/27 05:30:29;;;;;;;4.28;3.97;;;5.00;99.90;;;;;;5035105;28;20242;-74
2021/11/27 05:33:14;;;;;;;5.93;5.43;;;5.00;99.90;;;;;;5036651;28;20216;-73
2021/11/27 05:35:42;;;;;;;5.20;4.80;;;5.00;99.90;;;;;;5028935;28;20227;-74
2021/11/27 05:38:10;;;;;;;4.07;3.80;;;5.00;99.90;;;;;;5006128;28;20262;-73
2021/11/27 05:40:37;;;;;;;3.80;3.60;;;5.00;99.90;;;;;;5037421;28;20278;-74
2021/11/27 05:43:05;;;;;;;3.85;3.58;;;5.00;99.90;;;;;;5033746;28;20372;-74
2021/11/27 05:45:34;;;;;;;3.65;3.35;;;5.00;99.90;;;;;;5031830;28;20253;-72
2021/11/27 05:48:04;;;;;;;3.40;3.20;;;5.00;99.90;;;;;;5036665;28;20216;-74
2021/11/27 05:50:33;;;;;;;3.47;3.28;;;5.10;99.90;;;;;;5040119;28;20230;-72
2021/11/27 05:53:00;;;;;;;3.67;3.47;;;5.10;99.90;;;;;;5016065;28;20245;-74
2021/11/27 05:55:27;;;;;;;4.03;3.83;;;5.10;99.90;;;;;;5041193;28;20219;-73
2021/11/27 05:57:54;;;;;;;4.25;3.95;;;5.10;99.90;;;;;;5037270;28;20231;-73
2021/11/27 06:00:21;;;;;;;3.92;3.63;;;5.20;99.90;;;;;;5040275;28;20693;-72
2021/11/27 06:02:50;;;;;;;4.57;4.25;;;5.10;99.90;;;;;;5040663;28;20277;-73
2021/11/27 06:05:17;;;;;;;4.53;4.22;;;5.10;99.90;;;;;;5041394;28;20481;-74
2021/11/27 06:07:44;;;;;;;4.93;4.55;;;5.10;99.90;;;;;;5045845;28;20218;-73
2021/11/27 06:10:12;;;;;;;6.20;5.70;;;5.10;99.90;;;;;;5047663;28;20223;-74
2021/11/27 06:12:39;;;;;;;6.30;5.80;;;5.00;99.90;;;;;;5043521;28;20786;-74
2021/11/27 06:15:07;;;;;;;6.95;6.28;;;5.00;99.90;;;;;;5037356;28;20227;-74
2021/11/27 06:17:34;;;;;;;6.80;6.28;;;4.90;99.90;;;;;;5013382;28;20235;-74
2021/11/27 06:20:04;;;;;;;7.45;6.85;;;4.80;99.90;;;;;;5041237;28;20215;-72
2021/11/27 06:22:31;;;;;;;7.00;6.50;;;4.80;99.90;;;;;;5036322;28;20227;-73
2021/11/27 06:24:58;;;;;;;7.72;7.13;;;4.80;99.90;;;;;;5037838;28;20250;-72
2021/11/27 06:27:25;;;;;;;8.00;7.30;;;4.80;99.90;;;;;;5044588;28;20731;-74
2021/11/27 06:29:52;;;;;;;17.88;7.50;;;4.90;99.90;;;;;;5042491;28;20725;-74
2021/11/27 06:32:23;;;;;;;7.38;6.78;;;4.80;99.90;;;;;;5042826;28;20241;-74
2021/11/27 06:34:51;;;;;;;8.23;7.47;;;4.70;99.90;;;;;;5042580;28;20225;-74
2021/11/27 06:37:21;;;;;;;10.10;8.05;;;4.70;99.90;;;;;;5042504;28;20222;-73
2021/11/27 06:39:48;;;;;;;7.75;7.05;;;4.70;99.90;;;;;;5042300;28;20223;-74
2021/11/27 06:42:16;;;;;;;8.05;7.45;;;4.70;99.90;;;;;;5039297;28;20226;-74
2021/11/27 06:44:47;;;;;;;7.47;6.88;;;4.70;99.90;;;;;;5041836;28;20242;-73
2021/11/27 06:47:15;;;;;;;6.80;6.20;;;4.70;99.90;;;;;;5042378;28;20226;-74
2021/11/27 06:49:42;;;;;;;6.50;6.00;;;4.80;99.90;;;;;;5043451;28;21005;-74
2021/11/27 06:52:09;;;;;;;7.43;6.78;;;4.80;99.90;;;;;;5042175;28;20247;-72
2021/11/27 06:54:38;;;;;;;6.32;5.80;;;4.80;99.90;;;;;;5041400;28;20215;-74
2021/11/27 06:57:06;;;;;;;7.70;6.63;;;4.80;99.90;;;;;;4995906;28;20238;-74
2021/11/27 06:59:33;;;;;;;7.47;6.82;;;4.70;99.90;;;;;;5037119;28;20234;-74
2021/11/27 07:02:00;;;;;;;7.40;6.80;;;4.70;99.90;;;;;;5050879;28;20227;-72
2021/11/27 07:04:28;;;;;;;7.82;7.22;;;4.70;99.90;;;;;;5040837;28;20237;-74
2021/11/27 07:06:55;;;;;;;9.55;8.65;;;4.70;99.90;;;;;;5041503;28;20233;-73
2021/11/27 07:09:22;;;;;;;8.25;7.55;;;4.80;99.90;;;;;;5043768;28;20226;-74
2021/11/27 07:11:50;;;;;;;8.75;7.95;;;4.70;99.90;;;;;;5040491;28;20229;-73
2021/11/27 07:14:18;;;;;;;7.82;7.22;;;4.80;99.90;;;;;;5036951;28;20219;-74
2021/11/27 07:16:45;;;;;;;6.85;6.30;;;4.70;99.90;;;;;;5030135;28;20223;-73
2021/11/27 07:19:12;;;;;;;7.80;7.20;;;4.70;99.90;;;;;;5036856;28;20594;-73
2021/11/27 07:21:39;;;;;;;6.43;5.93;;;4.70;99.90;;;;;;5037771;28;20226;-73
2021/11/27 07:24:07;;;;;;;6.15;5.65;;;4.70;99.90;;;;;;5031750;28;20640;-73
2021/11/27 07:26:34;;;;;;;6.07;5.57;;;4.80;99.90;;;;;;5038941;28;20227;-74
2021/11/27 07:29:02;;;;;;;5.72;5.32;;;4.80;99.90;;;;;;5036871;28;20219;-75
2021/11/27 07:31:29;;;;;;;5.70;5.30;;;4.80;99.90;;;;;;5042813;28;20214;-74
2021/11/27 07:33:56;;;;;;;6.10;5.70;;;4.80;99.90;;;;;;5040631;28;20219;-73
2021/11/27 07:36:23;;;;;;;6.05;5.55;;;4.80;99.90;;;;;;5039587;28;20222;-74
2021/11/27 07:38:51;;;;;;;6.05;5.60;;;4.80;99.90;;;;;;5041209;28;20220;-72
2021/11/27 07:41:18;;;;;;;8.10;7.40;;;4.80;99.90;;;;;;5036861;28;20242;-72
2021/11/27 07:43:45;;;;;;;7.25;6.75;;;4.80;99.90;;;;;;5043485;28;20727;-72
2021/11/27 07:46:13;;;;;;;7.68;7.07;;;4.80;99.90;;;;;;5038966;28;20715;-74
2021/11/27 07:48:41;;;;;;;7.95;7.35;;;4.80;99.90;;;;;;5038801;28;20211;-73
2021/11/27 07:51:08;;;;;;;8.48;7.80;;;4.80;99.90;;;;;;5032488;28;20804;-74
2021/11/27 07:53:36;;;;;;;8.68;7.88;;;4.80;99.90;;;;;;5041630;28;20231;-74
2021/11/27 07:56:03;;;;;;;7.60;7.00;;;4.80;99.90;;;;;;5043807;28;21281;-74
2021/11/27 07:58:30;;;;;;;7.90;7.25;;;5.00;99.90;;;;;;5041928;28;20215;-73
2021/11/27 08:00:57;;;;;;;8.35;7.65;;;5.10;99.90;;;;;;5040094;28;20222;-73
2021/11/27 08:03:26;;;;;;;7.20;6.47;;;5.10;99.90;;;;;;5038750;28;20225;-73
2021/11/27 08:05:53;;;;;;;7.68;6.97;;;5.10;99.90;;;;;;5039154;28;20596;-74
2021/11/27 08:08:20;;;;;;;8.02;7.35;;;5.00;99.90;;;;;;5032627;28;20231;-73
2021/11/27 08:10:47;;;;;;;7.43;6.78;;;5.00;99.90;;;;;;5002432;28;20218;-73
2021/11/27 08:13:15;;;;;;;7.82;7.18;;;5.10;99.90;;;;;;5034568;28;20219;-74
2021/11/27 08:15:42;;;;;;;8.00;7.30;;;5.10;99.90;;;;;;5021044;28;20736;-74
2021/11/27 08:18:11;;;;;;;7.47;6.78;;;5.30;99.90;;;;;;5021436;28;20227;-75
2021/11/27 08:20:39;;;;;;;6.95;6.35;;;5.50;99.90;;;;;;5020520;28;20297;-73
2021/11/27 08:23:08;;;;;;;13.40;10.00;;;6.20;99.90;;;;;;5033188;28;20223;-73
2021/11/27 08:25:36;;;;;;;8.85;7.95;;;6.30;99.90;;;;;;5023247;28;20693;-74
2021/11/27 08:28:03;;;;;;;7.32;6.72;;;6.10;99.90;;;;;;5006413;28;22420;-74
2021/11/27 08:30:31;;;;;;;7.25;6.65;;;6.00;99.90;;;;;;5035917;28;20755;-76
2021/11/27 08:32:58;;;;;;;6.63;6.13;;;5.90;99.90;;;;;;5003591;28;20223;-73
2021/11/27 08:35:25;;;;;;;7.20;6.60;;;5.90;99.90;;;;;;5032269;28;20222;-74
2021/11/27 08:37:54;;;;;;;9.13;8.35;;;5.80;99.90;;;;;;5030637;28;20216;-74
2021/11/27 08:40:21;;;;;;;9.38;8.57;;;5.70;99.90;;;;;;5027815;28;20527;-73
2021/11/27 08:42:48;;;;;;;9.27;8.45;;;5.60;99.90;;;;;;5034779;28;20307;-72
2021/11/27 08:45:16;;;;;;;7.40;6.80;;;5.60;99.90;;;;;;5030049;28;20342;-74
2021/11/27 08:47:43;;;;;;;7.63;7.03;;;5.50;99.90;;;;;;5045286;28;20225;-75
2021/11/27 08:50:12;;;;;;;7.70;7.07;;;5.50;99.90;;;;;;5028782;28;20230;-74
2021/11/27 08:52:39;;;;;;;8.07;7.38;;;5.50;99.90;;;;;;5024811;28;20459;-74
2021/11/27 08:55:08;;;;;;;6.93;6.32;;;5.50;99.90;;;;;;5031214;28;20584;-75
2021/11/27 08:57:36;;;;;;;9.20;7.15;;;5.50;99.90;;;;;;5009638;28;20219;-74
2021/11/27 09:00:05;;;;;;;7.63;7.03;;;5.50;99.90;;;;;;5026386;28;20230;-73
2021/11/27 09:02:32;;;;;;;7.55;6.85;;;5.50;99.90;;;;;;5024798;28;20246;-73
2021/11/27 09:04:59;;;;;;;7.45;6.85;;;5.50;99.90;;;;;;5026969;28;20234;-74
2021/11/27 09:07:26;;;;;;;7.32;6.78;;;5.50;99.90;;;;;;5013944;28;20711;-73
2021/11/27 09:09:53;;;;;;;7.00;6.40;;;5.60;99.90;;;;;;5031569;28;20226;-75
2021/11/27 09:12:22;;;;;;;8.02;7.32;;;5.60;99.90;;;;;;5028532;28;20717;-72
2021/11/27 09:14:51;;;;;;;8.05;7.45;;;5.70;99.90;;;;;;5015930;28;20218;-75
2021/11/27 09:17:19;;;;;;;10.65;9.57;;;5.70;99.90;;;;;;5043942;28;20600;-74
2021/11/27 09:19:47;;;;;;;11.73;10.55;;;5.90;99.90;;;;;;5015805;28;20226;-73
2021/11/27 09:22:14;;;;;;;10.00;9.07;;;5.80;99.90;;;;;;5035367;28;20235;-74
2021/11/27 09:24:42;;;;;;;10.20;9.20;;;5.70;99.90;;;;;;5031808;28;20223;-74
2021/11/27 09:27:09;;;;;;;9.48;8.57;;;5.70;99.90;;;;;;5028311;28;20226;-74
2021/11/27 09:29:39;;;;;;;9.00;8.20;;;5.70;99.90;;;;;;5016164;28;20230;-74
2021/11/27 09:32:07;;;;;;;8.52;7.82;;;5.70;99.90;;;;;;5046099;28;20234;-73
2021/11/27 09:34:34;;;;;;;8.45;7.75;;;5.80;99.90;;;;;;5030121;28;20627;-74
2021/11/27 09:37:02;;;;;;;8.55;7.85;;;5.80;99.90;;;;;;5028625;28;20222;-74
2021/11/27 09:39:30;;;;;;;7.93;7.32;;;5.80;99.90;;;;;;5030253;28;20257;-75
2021/11/27 09:41:58;;;;;;;7.57;6.97;;;5.80;99.90;;;;;;5040153;28;20281;-72
2021/11/27 09:44:31;;;;;;;8.82;8.13;;;5.80;99.90;;;;;;5031371;28;20219;-74
2021/11/27 09:47:03;;;;;;;8.00;7.40;;;5.80;99.90;;;;;;5003806;28;20219;-74
2021/11/27 09:49:31;;;;;;;8.77;7.97;;;5.80;99.90;;;;;;5039546;28;20233;-74
2021/11/27 09:51:58;;;;;;;8.27;7.68;;;5.90;99.90;;;;;;5010222;28;20737;-75
2021/11/27 09:54:26;;;;;;;7.45;6.85;;;5.90;99.90;;;;;;5055485;23;20215;-87
2021/11/27 09:56:55;;;;;;;7.55;6.95;;;6.00;99.90;;;;;;5012036;28;20227;-83
2021/11/27 09:59:22;;;;;;;7.63;7.03;;;6.00;99.90;;;;;;5017057;28;20316;-88
2021/11/27 10:01:52;;;;;;;7.63;7.03;;;6.00;99.90;;;;;;5017211;28;20759;-81
2021/11/27 10:04:22;;;;;;;8.45;7.68;;;6.10;99.90;;;;;;5017571;28;20258;-81
2021/11/27 10:06:49;;;;;;;8.38;7.68;;;6.10;99.90;;;;;;5015987;28;20215;-82
2021/11/27 10:09:18;;;;;;;9.05;8.15;;;6.20;99.90;;;;;;4994334;28;20235;-84
2021/11/27 10:11:47;;;;;;;9.20;8.40;;;6.30;99.90;;;;;;5016825;28;20234;-82
2021/11/27 10:14:14;;;;;;;9.40;8.60;;;6.40;99.90;;;;;;5016697;28;20235;-82
2021/11/27 10:17:05;;;;;;;8.80;8.10;;;6.60;99.90;;;;;;5020332;28;20227;-82
2021/11/27 10:19:47;;;;;;;8.18;7.47;;;6.70;99.90;;;;;;5016987;28;20226;-84
2021/11/27 10:22:17;;;;;;;8.52;7.82;;;6.80;99.90;;;;;;5012210;28;20304;-85
2021/11/27 10:24:47;;;;;;;8.23;7.47;;;6.80;99.90;;;;;;5019526;28;20311;-80
2021/11/27 10:27:25;;;;;;;8.95;8.25;;;6.90;99.90;;;;;;5014626;28;20228;-77
2021/11/27 10:30:02;;;;;;;7.88;7.10;;;7.00;99.90;;;;;;5015930;28;20479;-82
2021/11/27 10:32:36;;;;;;;7.65;7.05;;;7.10;99.90;;;;;;5020472;28;20219;-79
2021/11/27 10:35:07;;;;;;;7.53;6.93;;;7.20;99.90;;;;;;5016693;28;20708;-82
2021/11/27 10:37:38;;;;;;;9.73;8.82;;;7.20;99.90;;;;;;5017562;28;20231;-77
2021/11/27 10:40:07;;;;;;;9.07;8.38;;;7.10;99.90;;;;;;5016311;28;20227;-79
2021/11/27 10:42:36;;;;;;;9.25;8.45;;;7.10;99.90;;;;;;5018234;28;20227;-83
2021/11/27 10:45:15;;;;;;;9.60;8.80;;;7.10;99.90;;;;;;5018027;28;20728;-79
2021/11/27 10:47:44;;;;;;;10.02;9.18;;;7.30;99.90;;;;;;5021067;28;20219;-82
2021/11/27 10:50:18;;;;;;;9.63;8.82;;;7.30;99.90;;;;;;5020446;28;20711;-78
2021/11/27 10:52:46;;;;;;;10.38;9.48;;;7.50;99.90;;;;;;5016263;28;20219;-79
2021/11/27 10:55:20;;;;;;;9.35;8.55;;;7.40;99.90;;;;;;5014466;28;20707;-78
2021/11/27 10:57:48;;;;;;;8.60;7.90;;;7.30;99.90;;;;;;5017549;28;20679;-79
2021/11/27 11:00:36;;;;;;;8.75;8.00;;;7.30;99.90;;;;;;5013255;28;20219;-77
2021/11/27 11:03:06;;;;;;;8.15;7.53;;;7.30;99.90;;;;;;5009707;28;20663;-80
2021/11/27 11:05:37;;;;;;;8.45;7.75;;;7.60;99.90;;;;;;5015217;28;20250;-78
2021/11/27 11:08:06;;;;;;;17.10;8.18;;;7.80;99.90;;;;;;5022102;28;20223;-77
2021/11/27 11:10:34;;;;;;;8.35;6.43;;;7.80;99.90;;;;;;5019481;28;20232;-79
2021/11/27 11:13:05;;;;;;;7.35;6.72;;;7.90;99.90;;;;;;5016918;28;20724;-78
2021/11/27 11:15:34;;;;;;;6.63;6.13;;;7.90;99.90;;;;;;5015837;28;20211;-79
2021/11/27 11:18:17;;;;;;;6.25;5.57;;;7.90;99.90;;;;;;5018862;28;20251;-78
2021/11/27 11:20:48;;;;;;;6.05;5.55;;;8.00;99.90;;;;;;4995254;28;20227;-78
2021/11/27 11:23:20;;;;;;;6.50;5.90;;;8.20;99.90;;;;;;5021367;28;20275;-77
2021/11/27 11:26:02;;;;;;;7.97;7.25;;;8.40;99.90;;;;;;5019639;28;20739;-76
2021/11/27 11:28:31;;;;;;;6.50;5.90;;;8.60;99.90;;;;;;5017214;28;20216;-77
2021/11/27 11:31:04;;;;;;;7.88;6.75;;;9.00;99.90;;;;;;5017803;28;20681;-77
2021/11/27 11:33:33;;;;;;;7.30;6.60;;;9.40;99.90;;;;;;5021281;28;20717;-77
2021/11/27 11:36:04;;;;;;;7.53;6.88;;;10.00;99.90;;;;;;5025538;28;20219;-78
2021/11/27 11:38:31;;;;;;;6.53;5.93;;;10.50;99.90;;;;;;5019225;28;20791;-78
2021/11/27 11:40:59;;;;;;;8.32;7.63;;;10.70;99.90;;;;;;5023208;28;20215;-79
2021/11/27 11:43:27;;;;;;;7.30;6.60;;;11.10;99.90;;;;;;5019033;28;20224;-77
2021/11/27 11:45:54;;;;;;;7.07;6.38;;;11.10;99.90;;;;;;5018614;28;20586;-77
2021/11/27 11:48:25;;;;;;;8.55;7.75;;;11.30;99.90;;;;;;5022428;28;20219;-77
2021/11/27 11:51:08;;;;;;;8.32;7.53;;;11.20;99.90;;;;;;5011053;28;20227;-76
2021/11/27 11:53:40;;;;;;;9.65;8.65;;;10.90;99.90;;;;;;5014878;28;20429;-78
2021/11/27 11:56:10;;;;;;;8.75;7.95;;;10.20;99.90;;;;;;5014089;28;20288;-76
2021/11/27 11:58:38;;;;;;;10.30;9.30;;;9.70;99.90;;;;;;5005062;28;20231;-77
2021/11/27 12:01:08;;;;;;;9.88;8.98;;;9.40;99.90;;;;;;5010031;28;20242;-76
2021/11/27 12:03:40;;;;;;;8.38;7.57;;;9.30;99.90;;;;;;5008624;28;20234;-76
2021/11/27 12:06:14;;;;;;;7.90;7.10;;;9.20;99.90;;;;;;5005220;28;20645;-75
2021/11/27 12:09:11;;;;;;;8.50;7.70;;;9.00;99.90;;;;;;5009071;28;20211;-76
2021/11/27 12:12:04;;;;;;;8.38;7.68;;;8.80;99.90;;;;;;4993032;28;20227;-76
2021/11/27 12:14:58;;;;;;;9.10;8.30;;;9.10;99.90;;;;;;5005723;28;20559;-77
2021/11/27 12:17:25;;;;;;;7.93;7.28;;;9.30;99.90;;;;;;5003961;28;21514;-77
2021/11/27 12:19:54;;;;;;;8.52;7.82;;;9.60;99.90;;;;;;5009191;28;20225;-78
2021/11/27 12:22:39;;;;;;;7.97;7.28;;;10.00;99.90;;;;;;5006677;28;20235;-77
2021/11/27 12:25:12;;;;;;;7.55;6.80;;;9.90;99.90;;;;;;5010529;28;20706;-76
2021/11/27 12:28:21;;;;;;;7.05;6.43;;;10.00;99.90;;;;;;5009299;28;20223;-75
2021/11/27 12:31:06;;;;;;;6.55;5.80;;;9.90;99.90;;;;;;5010703;28;20226;-76
2021/11/27 12:33:59;;;;;;;5.60;5.07;;;9.70;99.90;;;;;;5010175;28;20234;-77
2021/11/27 12:36:49;;;;;;;5.80;5.30;;;9.60;99.90;;;;;;4965714;28;20281;-76
2021/11/27 12:39:37;;;;;;;5.88;4.97;;;9.50;99.90;;;;;;5018516;28;20219;-76
2021/11/27 12:42:34;;;;;;;7.20;5.30;;;9.40;99.90;;;;;;5016021;28;20235;-77
2021/11/27 12:45:04;;;;;;;8.85;5.95;;;9.30;99.90;;;;;;5013858;28;20644;-78
2021/11/27 12:47:36;;;;;;;5.00;4.60;;;9.40;99.90;;;;;;5007400;28;20233;-78
2021/11/27 12:50:12;;;;;;;5.15;4.65;;;9.40;99.90;;;;;;5021802;28;20234;-75
2021/11/27 13:11:01;;;;;;;7.07;6.00;;;8.80;99.90;;;;;;4786341;28;20349;-78
2021/11/27 13:17:29;;;;;;;7.40;6.72;;;9.00;99.90;;;;;;4927054;28;20329;-77
2021/11/27 13:20:05;;;;;;;7.13;6.43;;;8.80;99.90;;;;;;4862441;28;20232;-77
2021/11/27 13:23:20;;;;;;;7.40;6.70;;;8.70;99.90;;;;;;4952019;28;20223;-77
2021/11/27 13:29:40;;;;;;;6.60;6.00;;;8.60;99.90;;;;;;4928528;28;20478;-77
2021/11/27 13:32:08;;;;;;;7.50;6.80;;;8.60;99.90;;;;;;5010210;28;20229;-76
2021/11/27 13:34:37;;;;;;;6.38;5.88;;;8.70;99.90;;;;;;5032915;28;20249;-78